createdAt,value
2023-04-15T00:01:40.071Z,22.03
2023-04-15T00:04:08.761Z,21.37
2023-04-15T00:06:38.321Z,21.40
2023-04-15T00:09:06.091Z,24.50
2023-04-15T00:11:33.538Z,23.67
2023-04-15T00:14:01.108Z,28.13
2023-04-15T00:16:28.637Z,25.07
2023-04-15T00:18:55.907Z,24.90
2023-04-15T00:21:23.168Z,28.33
2023-04-15T00:23:53.188Z,27.57
2023-04-15T00:26:21.065Z,25.37
2023-04-15T00:28:48.635Z,28.37
2023-04-15T00:31:16.873Z,29.60
2023-04-15T00:33:44.961Z,31.60
2023-04-15T00:36:12.330Z,34.20
2023-04-15T00:38:39.876Z,33.63
2023-04-15T00:41:07.979Z,38.27
2023-04-15T00:43:35.447Z,38.23
2023-04-15T00:46:05.670Z,40.73
2023-04-15T00:48:33.559Z,47.50
2023-04-15T00:51:01.278Z,43.60
2023-04-15T00:53:28.899Z,52.43
2023-04-15T00:55:56.668Z,49.90
2023-04-15T00:58:24.437Z,52.70
2023-04-15T01:00:54.716Z,41.90
2023-04-15T01:03:22.313Z,47.20
2023-04-15T01:05:50.747Z,45.17
2023-04-15T01:08:18.045Z,43.00
2023-04-15T01:10:45.678Z,48.57
2023-04-15T01:13:13.222Z,51.70
2023-04-15T01:15:40.941Z,45.30
2023-04-15T01:18:08.723Z,36.83
2023-04-15T01:20:36.851Z,35.03
2023-04-15T01:23:04.420Z,31.43
2023-04-15T01:25:33.656Z,31.20
2023-04-15T01:28:01.604Z,31.33
2023-04-15T01:30:28.997Z,29.50
2023-04-15T01:32:56.407Z,31.43
2023-04-15T01:35:26.110Z,29.17
2023-04-15T01:37:55.299Z,29.83
2023-04-15T01:40:23.100Z,28.63
2023-04-15T01:42:50.559Z,29.90
2023-04-15T01:45:18.343Z,28.37
2023-04-15T01:47:45.922Z,29.00
2023-04-15T01:50:13.472Z,32.00
2023-04-15T01:52:41.049Z,25.33
2023-04-15T01:55:09.972Z,27.03
2023-04-15T01:57:37.427Z,39.87
2023-04-15T02:00:05.368Z,23.10
2023-04-15T02:02:36.293Z,18.20
2023-04-15T02:05:05.959Z,18.40
2023-04-15T02:07:33.198Z,15.37
2023-04-15T02:10:00.537Z,17.97
2023-04-15T02:12:28.012Z,15.30
2023-04-15T02:14:56.213Z,18.67
2023-04-15T02:17:23.565Z,12.90
2023-04-15T02:19:50.795Z,10.73
2023-04-15T02:22:19.067Z,8.03
2023-04-15T02:24:47.250Z,6.90
2023-04-15T02:27:18.696Z,7.77
2023-04-15T02:29:46.738Z,6.03
2023-04-15T02:32:14.455Z,7.67
2023-04-15T02:34:43.120Z,5.00
2023-04-15T02:37:11.638Z,5.40
2023-04-15T02:39:39.184Z,5.00
2023-04-15T02:42:06.584Z,5.50
2023-04-15T02:44:35.545Z,7.13
2023-04-15T02:47:03.837Z,4.17
2023-04-15T02:49:31.318Z,3.07
2023-04-15T02:52:00.215Z,6.53
2023-04-15T02:54:29.139Z,3.90
2023-04-15T02:56:56.962Z,3.60
2023-04-15T02:59:24.363Z,3.33
2023-04-15T03:01:51.925Z,3.10
2023-04-15T03:04:19.322Z,3.07
2023-04-15T03:06:46.656Z,3.10
2023-04-15T03:09:13.933Z,3.23
2023-04-15T03:11:42.421Z,2.40
2023-04-15T03:14:09.740Z,1.57
2023-04-15T03:16:36.992Z,3.60
2023-04-15T03:19:04.373Z,1.53
2023-04-15T03:21:31.640Z,3.03
2023-04-15T03:23:59.581Z,1.77
2023-04-15T03:26:31.228Z,1.70
2023-04-15T03:28:59.005Z,2.23
2023-04-15T03:31:26.556Z,2.80
2023-04-15T03:33:53.887Z,4.83
2023-04-15T03:36:21.417Z,3.17
2023-04-15T03:38:49.740Z,2.33
2023-04-15T03:41:17.248Z,1.30
2023-04-15T03:43:44.507Z,1.13
2023-04-15T03:46:11.825Z,1.20
2023-04-15T03:48:39.078Z,1.17
2023-04-15T03:51:06.855Z,1.10
2023-04-15T03:53:34.183Z,1.10
2023-04-15T03:56:01.974Z,1.40
2023-04-15T03:58:29.454Z,0.80
2023-04-15T04:00:56.784Z,1.27
2023-04-15T04:03:24.296Z,2.37
2023-04-15T04:05:52.091Z,1.10
2023-04-15T04:08:20.529Z,4.47
2023-04-15T04:10:48.069Z,0.70
2023-04-15T04:13:15.923Z,0.90
2023-04-15T04:15:43.166Z,1.17
2023-04-15T04:18:10.669Z,1.03
2023-04-15T04:20:38.091Z,1.20
2023-04-15T04:23:05.425Z,1.10
2023-04-15T04:25:33.477Z,1.30
2023-04-15T04:28:00.959Z,3.10
2023-04-15T04:30:28.193Z,1.53
2023-04-15T04:32:55.634Z,2.53
2023-04-15T04:35:23.353Z,1.53
2023-04-15T04:37:51.167Z,1.43
2023-04-15T04:40:18.546Z,0.90
2023-04-15T04:42:45.819Z,1.40
2023-04-15T04:45:13.793Z,1.83
2023-04-15T04:47:41.487Z,1.30
2023-04-15T04:50:09.727Z,1.30
2023-04-15T04:52:37.827Z,6.87
2023-04-15T04:55:06.061Z,9.20
2023-04-15T04:57:33.486Z,22.07
2023-04-15T05:00:00.990Z,33.53
2023-04-15T05:02:28.373Z,133.77
2023-04-15T05:04:55.813Z,75.17
2023-04-15T05:07:24.326Z,41.97
2023-04-15T05:09:51.813Z,30.90
2023-04-15T05:12:19.159Z,58.97
2023-04-15T05:14:47.162Z,30.53
2023-04-15T05:17:14.728Z,10.77
2023-04-15T05:19:42.179Z,22.97
2023-04-15T05:22:09.812Z,25.47
2023-04-15T05:24:37.191Z,24.00
2023-04-15T05:27:05.526Z,7.70
2023-04-15T05:29:33.357Z,10.60
2023-04-15T05:32:00.805Z,14.73
2023-04-15T05:34:28.410Z,11.10
2023-04-15T05:36:55.865Z,7.33
2023-04-15T05:39:23.278Z,3.10
2023-04-15T05:41:50.525Z,3.50
2023-04-15T05:44:18.066Z,2.97
2023-04-15T05:46:45.382Z,5.60
2023-04-15T05:49:12.661Z,42.67
2023-04-15T05:51:40.032Z,5.13
2023-04-15T05:54:07.591Z,5.13
2023-04-15T05:56:35.044Z,9.77
2023-04-15T05:59:02.646Z,7.17
2023-04-15T06:01:30.710Z,3.10
2023-04-15T06:03:58.510Z,3.20
2023-04-15T06:06:28.157Z,2.70
2023-04-15T06:08:56.256Z,2.30
2023-04-15T06:11:26.945Z,6.07
2023-04-15T06:13:54.847Z,4.13
2023-04-15T06:16:23.393Z,11.63
2023-04-15T06:18:50.865Z,1.93
2023-04-15T06:21:18.325Z,3.77
2023-04-15T06:23:45.881Z,16.03
2023-04-15T06:26:13.350Z,17.50
2023-04-15T06:28:40.962Z,5.87
2023-04-15T06:31:17.341Z,3.03
2023-04-15T06:33:44.748Z,1.23
2023-04-15T06:36:12.374Z,1.10
2023-04-15T06:38:39.657Z,1.70
2023-04-15T06:41:07.612Z,1.67
2023-04-15T06:43:35.059Z,1.77
2023-04-15T06:46:02.682Z,2.17
2023-04-15T06:48:30.180Z,5.20
2023-04-15T06:50:58.706Z,2.80
2023-04-15T06:53:28.396Z,9.20
2023-04-15T06:55:56.350Z,5.57
2023-04-15T06:58:24.135Z,1.33
2023-04-15T07:00:52.276Z,2.73
2023-04-15T07:03:19.673Z,2.30
2023-04-15T07:05:47.311Z,2.57
2023-04-15T07:08:14.974Z,3.13
2023-04-15T07:10:42.524Z,6.53
2023-04-15T07:13:10.646Z,7.30
2023-04-15T07:15:39.852Z,2.37
2023-04-15T07:18:07.311Z,1.23
2023-04-15T07:20:34.797Z,4.07
2023-04-15T07:23:02.293Z,1.80
2023-04-15T07:25:29.908Z,1.50
2023-04-15T07:27:57.495Z,1.17
2023-04-15T07:30:25.274Z,2.50
2023-04-15T07:32:53.262Z,1.43
2023-04-15T07:35:21.817Z,1.70
2023-04-15T07:37:49.525Z,1.57
2023-04-15T07:40:17.126Z,1.80
2023-04-15T07:42:45.074Z,2.77
2023-04-15T07:45:13.251Z,2.37
2023-04-15T07:47:43.719Z,8.10
2023-04-15T07:50:11.769Z,1.30
2023-04-15T07:52:43.221Z,15.90
2023-04-15T07:55:11.413Z,0.90
2023-04-15T07:57:40.108Z,1.03
2023-04-15T08:00:08.325Z,0.77
2023-04-15T08:02:39.057Z,1.90
2023-04-15T08:05:08.193Z,1.13
2023-04-15T08:07:38.576Z,1.43
2023-04-15T08:10:06.704Z,3.40
2023-04-15T08:12:34.139Z,1.00
2023-04-15T08:15:02.604Z,1.13
2023-04-15T08:17:30.088Z,0.57
2023-04-15T08:19:57.673Z,0.47
2023-04-15T08:22:24.983Z,0.80
2023-04-15T08:24:52.305Z,0.50
2023-04-15T08:27:19.990Z,2.17
2023-04-15T08:29:47.445Z,0.60
2023-04-15T08:32:15.319Z,0.77
2023-04-15T08:34:42.861Z,0.50
2023-04-15T08:37:11.488Z,2.07
2023-04-15T08:39:40.214Z,1.17
2023-04-15T08:42:12.940Z,0.70
2023-04-15T08:44:40.857Z,1.23
2023-04-15T08:47:09.563Z,1.33
2023-04-15T08:49:40.980Z,1.67
2023-04-15T08:52:09.729Z,1.30
2023-04-15T08:54:37.982Z,0.87
2023-04-15T08:57:05.527Z,0.70
2023-04-15T08:59:33.960Z,0.80
2023-04-15T09:02:01.522Z,2.80
2023-04-15T09:04:29.331Z,1.17
2023-04-15T09:06:57.547Z,0.70
2023-04-15T09:09:24.831Z,2.17
2023-04-15T09:11:52.102Z,3.60
2023-04-15T09:14:19.998Z,2.60
2023-04-15T09:17:01.183Z,2.47
2023-04-15T09:19:29.861Z,2.27
2023-04-15T09:21:59.317Z,2.97
2023-04-15T09:24:39.988Z,3.77
2023-04-15T09:27:07.778Z,1.07
2023-04-15T09:29:35.398Z,2.00
2023-04-15T09:32:16.608Z,2.47
2023-04-15T09:34:44.829Z,2.33
2023-04-15T09:37:28.556Z,1.27
2023-04-15T09:39:58.777Z,1.10
2023-04-15T09:42:27.089Z,1.93
2023-04-15T09:44:54.530Z,3.40
2023-04-15T09:47:32.532Z,1.53
2023-04-15T09:50:01.436Z,1.20
2023-04-15T09:52:29.859Z,1.10
2023-04-15T09:55:01.304Z,1.23
2023-04-15T09:57:39.097Z,0.90
2023-04-15T10:00:08.492Z,0.80
2023-04-15T10:02:37.105Z,1.00
2023-04-15T10:05:05.163Z,1.00
2023-04-15T10:07:34.761Z,0.80
2023-04-15T10:10:05.608Z,0.87
2023-04-15T10:12:33.824Z,1.40
2023-04-15T10:15:08.395Z,1.80
2023-04-15T10:17:37.617Z,3.23
2023-04-15T10:20:06.515Z,1.93
2023-04-15T10:22:33.920Z,2.10
2023-04-15T10:25:03.008Z,2.30
2023-04-15T10:27:30.806Z,1.50
2023-04-15T10:29:58.932Z,2.33
2023-04-15T10:32:26.654Z,2.10
2023-04-15T10:34:55.367Z,4.07
2023-04-15T10:37:23.902Z,1.20
2023-04-15T10:39:51.792Z,2.90
2023-04-15T10:42:20.444Z,0.97
2023-04-15T10:44:52.533Z,1.50
2023-04-15T10:47:21.811Z,1.00
2023-04-15T10:49:57.409Z,2.00
2023-04-15T10:52:29.323Z,3.03
2023-04-15T10:55:19.289Z,1.60
2023-04-15T10:57:46.619Z,1.73
2023-04-15T11:00:21.334Z,1.07
2023-04-15T11:03:08.338Z,4.50
2023-04-15T11:05:42.261Z,0.40
2023-04-15T11:08:10.663Z,0.50
2023-04-15T11:10:37.999Z,0.40
2023-04-15T11:13:28.370Z,0.50
2023-04-15T11:16:01.698Z,0.70
2023-04-15T11:18:33.668Z,0.93
2023-04-15T11:21:04.062Z,0.80
2023-04-15T11:23:34.386Z,0.30
2023-04-15T11:26:08.543Z,4.17
2023-04-15T11:28:38.820Z,2.93
2023-04-15T11:31:11.698Z,2.40
2023-04-15T11:33:46.208Z,2.17
2023-04-15T11:36:14.216Z,0.80
2023-04-15T11:38:46.167Z,1.60
2023-04-15T11:41:13.664Z,8.53
2023-04-15T11:43:41.414Z,0.57
2023-04-15T11:46:09.235Z,1.00
2023-04-15T11:48:37.483Z,0.63
2023-04-15T11:51:07.371Z,0.87
2023-04-15T11:53:43.875Z,0.57
2023-04-15T11:56:17.668Z,0.40
2023-04-15T11:58:46.685Z,1.53
2023-04-15T12:01:14.439Z,0.77
2023-04-15T12:03:44.210Z,0.70
2023-04-15T12:06:12.415Z,1.90
2023-04-15T12:09:01.610Z,1.40
2023-04-15T12:11:38.376Z,1.67
2023-04-15T12:14:07.743Z,0.97
2023-04-15T12:16:49.759Z,2.13
2023-04-15T12:19:45.837Z,3.23
2023-04-15T12:22:17.069Z,2.00
2023-04-15T12:24:48.341Z,1.63
2023-04-15T12:27:18.317Z,1.67
2023-04-15T12:29:45.773Z,1.67
2023-04-15T12:32:19.957Z,3.67
2023-04-15T12:34:57.464Z,0.90
2023-04-15T12:37:24.739Z,2.90
2023-04-15T12:39:52.701Z,1.13
2023-04-15T12:42:20.926Z,1.10
2023-04-15T12:44:48.257Z,1.13
2023-04-15T12:47:16.348Z,3.63
2023-04-15T12:49:43.678Z,2.00
2023-04-15T12:52:11.126Z,0.60
2023-04-15T12:54:42.559Z,1.13
2023-04-15T12:57:10.085Z,2.30
2023-04-15T12:59:37.744Z,2.23
2023-04-15T13:02:05.457Z,2.10
2023-04-15T13:04:33.135Z,2.13
2023-04-15T13:07:01.726Z,1.60
2023-04-15T13:09:29.147Z,2.13
2023-04-15T13:11:57.824Z,0.80
2023-04-15T13:14:25.240Z,1.15
2023-04-15T13:16:52.599Z,1.55
2023-04-15T13:19:20.095Z,0.70
2023-04-15T13:21:47.406Z,1.00
2023-04-15T13:24:14.828Z,0.47
2023-04-15T13:26:42.440Z,0.80
2023-04-15T13:29:09.765Z,1.73
2023-04-15T13:31:37.079Z,1.30
2023-04-15T13:34:04.618Z,0.88
2023-04-15T13:36:32.042Z,1.60
2023-04-15T13:39:00.362Z,1.37
2023-04-15T13:41:27.647Z,1.27
2023-04-15T13:43:54.972Z,3.07
2023-04-15T13:46:22.859Z,1.50
2023-04-15T13:48:50.276Z,2.90
2023-04-15T13:51:17.606Z,1.67
2023-04-15T13:53:44.976Z,2.43
2023-04-15T13:56:12.481Z,1.33
2023-04-15T13:58:41.606Z,9.47
2023-04-15T14:01:09.209Z,1.40
2023-04-15T14:03:37.059Z,1.20
2023-04-15T14:06:05.730Z,2.37
2023-04-15T14:08:33.187Z,3.73
2023-04-15T14:11:00.858Z,0.80
2023-04-15T14:13:28.157Z,0.70
2023-04-15T14:15:55.673Z,2.17
2023-04-15T14:18:22.979Z,1.13
2023-04-15T14:20:50.331Z,2.00
2023-04-15T14:23:17.579Z,2.40
2023-04-15T14:25:46.822Z,1.33
2023-04-15T14:28:15.697Z,2.00
2023-04-15T14:30:43.253Z,2.70
2023-04-15T14:33:10.992Z,0.97
2023-04-15T14:35:38.437Z,0.63
2023-04-15T14:38:06.716Z,2.20
2023-04-15T14:40:34.522Z,1.30
2023-04-15T14:43:01.791Z,2.07
2023-04-15T14:45:30.631Z,5.60
2023-04-15T14:47:58.024Z,2.47
2023-04-15T14:50:25.810Z,3.60
2023-04-15T14:52:53.423Z,3.23
2023-04-15T14:55:27.385Z,3.78
2023-04-15T14:57:54.970Z,3.37
2023-04-15T15:00:22.322Z,4.80
2023-04-15T15:02:49.793Z,4.13
2023-04-15T15:05:17.327Z,4.23
2023-04-15T15:07:46.332Z,4.73
2023-04-15T15:10:13.839Z,1.97
2023-04-15T15:12:41.522Z,2.00
2023-04-15T15:15:24.984Z,2.20
2023-04-15T15:17:56.210Z,2.20
2023-04-15T15:20:25.144Z,1.97
2023-04-15T15:22:52.941Z,1.73
2023-04-15T15:25:20.453Z,3.33
2023-04-15T15:27:48.415Z,3.03
2023-04-15T15:30:15.895Z,3.77
2023-04-15T15:32:43.949Z,3.30
2023-04-15T15:35:11.455Z,2.27
2023-04-15T15:37:39.085Z,2.43
2023-04-15T15:40:07.447Z,2.57
2023-04-15T15:42:35.228Z,3.80
2023-04-15T15:45:04.043Z,2.97
2023-04-15T15:47:31.600Z,2.67
2023-04-15T15:49:58.946Z,3.27
2023-04-15T15:52:26.561Z,2.30
2023-04-15T15:54:53.767Z,3.50
2023-04-15T15:57:21.144Z,6.80
2023-04-15T16:00:04.791Z,4.27
2023-04-15T16:03:04.254Z,3.73
2023-04-15T16:05:26.653Z,5.23
2023-04-15T16:07:55.026Z,4.17
2023-04-15T16:10:22.459Z,5.90
2023-04-15T16:12:50.123Z,3.20
2023-04-15T16:15:17.483Z,4.30
2023-04-15T16:17:44.746Z,4.67
2023-04-15T16:20:12.567Z,3.67
2023-04-15T16:22:39.974Z,5.03
2023-04-15T16:25:07.634Z,4.30
2023-04-15T16:27:46.772Z,3.47
2023-04-15T16:30:23.969Z,3.90
2023-04-15T16:32:51.818Z,3.67
2023-04-15T16:35:19.665Z,2.63
2023-04-15T16:37:48.166Z,3.03
2023-04-15T16:40:15.622Z,6.47
2023-04-15T16:42:43.945Z,5.50
2023-04-15T16:45:11.581Z,3.67
2023-04-15T16:47:39.533Z,3.33
2023-04-15T16:50:07.597Z,2.47
2023-04-15T16:52:35.274Z,2.20
2023-04-15T16:55:03.702Z,1.90
2023-04-15T16:57:50.828Z,2.20
2023-04-15T17:00:18.523Z,2.97
2023-04-15T17:02:46.312Z,2.27
2023-04-15T17:05:13.998Z,1.87
2023-04-15T17:07:43.610Z,2.07
2023-04-15T17:10:11.364Z,4.27
2023-04-15T17:12:38.771Z,3.90
2023-04-15T17:15:07.458Z,3.23
2023-04-15T17:17:34.807Z,4.50
2023-04-15T17:20:02.237Z,5.67
2023-04-15T17:22:29.553Z,6.53
2023-04-15T17:24:56.853Z,9.67
2023-04-15T17:27:25.089Z,6.97
2023-04-15T17:29:52.862Z,12.67
2023-04-15T17:32:20.221Z,11.47
2023-04-15T17:34:49.603Z,7.37
2023-04-15T17:37:18.823Z,6.33
2023-04-15T17:39:46.490Z,8.13
2023-04-15T17:42:14.231Z,6.90
2023-04-15T17:44:41.911Z,7.90
2023-04-15T17:47:09.248Z,9.70
2023-04-15T17:49:38.010Z,8.37
2023-04-15T17:52:05.507Z,7.80
2023-04-15T17:54:32.951Z,9.47
2023-04-15T17:57:00.441Z,11.97
2023-04-15T17:59:28.416Z,11.87
2023-04-15T18:01:56.139Z,17.23
2023-04-15T18:04:26.470Z,16.33
2023-04-15T18:06:54.285Z,11.93
2023-04-15T18:09:22.193Z,14.40
2023-04-15T18:11:49.568Z,13.67
2023-04-15T18:14:30.789Z,17.00
2023-04-15T18:17:01.830Z,19.03
2023-04-15T18:19:29.953Z,35.10
2023-04-15T18:21:57.202Z,23.50
2023-04-15T18:24:24.468Z,16.17
2023-04-15T18:26:53.223Z,24.30
2023-04-15T18:29:20.678Z,31.77
2023-04-15T18:31:48.296Z,31.13
2023-04-15T18:34:15.669Z,21.70
2023-04-15T18:36:43.515Z,15.17
2023-04-15T18:39:10.812Z,94.77
2023-04-15T18:41:41.356Z,22.03
2023-04-15T18:44:08.758Z,24.43
2023-04-15T18:46:36.229Z,20.57
2023-04-15T18:49:04.554Z,18.00
2023-04-15T18:51:33.301Z,15.83
2023-04-15T18:54:00.703Z,10.43
2023-04-15T18:56:28.059Z,14.43
2023-04-15T18:59:09.858Z,31.80
2023-04-15T19:01:43.493Z,34.30
2023-04-15T19:04:11.627Z,14.53
2023-04-15T19:06:40.031Z,12.37
2023-04-15T19:09:07.640Z,19.03
2023-04-15T19:11:35.107Z,32.73
2023-04-15T19:14:02.605Z,26.23
2023-04-15T19:16:30.720Z,23.70
2023-04-15T19:18:58.313Z,24.37
2023-04-15T19:21:25.771Z,26.20
2023-04-15T19:23:53.087Z,19.80
2023-04-15T19:26:20.463Z,24.53
2023-04-15T19:28:47.891Z,23.33
2023-04-15T19:31:15.670Z,21.87
2023-04-15T19:33:44.137Z,23.80
2023-04-15T19:36:12.052Z,22.50
2023-04-15T19:38:39.624Z,23.47
2023-04-15T19:41:07.008Z,24.20
2023-04-15T19:43:35.226Z,43.67
2023-04-15T19:46:02.566Z,42.00
2023-04-15T19:48:30.367Z,54.27
2023-04-15T19:50:58.222Z,64.90
2023-04-15T19:53:26.003Z,93.20
2023-04-15T19:55:53.358Z,81.20
2023-04-15T19:58:20.896Z,33.97
2023-04-15T20:00:48.373Z,37.23
2023-04-15T20:03:16.909Z,32.50
2023-04-15T20:05:44.618Z,29.67
2023-04-15T20:08:12.410Z,41.73
2023-04-15T20:10:39.902Z,36.10
2023-04-15T20:13:07.419Z,22.87
2023-04-15T20:15:35.145Z,38.03
2023-04-15T20:18:02.466Z,38.57
2023-04-15T20:20:29.873Z,28.10
2023-04-15T20:22:57.308Z,20.77
2023-04-15T20:25:24.597Z,23.40
2023-04-15T20:27:51.970Z,18.23
2023-04-15T20:30:19.424Z,22.27
2023-04-15T20:32:47.090Z,29.33
2023-04-15T20:35:14.487Z,27.83
2023-04-15T20:37:47.725Z,57.70
2023-04-15T20:40:17.984Z,40.87
2023-04-15T20:42:45.311Z,27.70
2023-04-15T20:45:12.698Z,11.63
2023-04-15T20:47:40.072Z,11.47
2023-04-15T20:50:08.080Z,7.97
2023-04-15T20:52:35.395Z,8.00
2023-04-15T20:55:02.703Z,7.37
2023-04-15T20:57:30.515Z,9.53
2023-04-15T20:59:57.815Z,7.07
2023-04-15T21:02:25.638Z,6.60
2023-04-15T21:04:53.595Z,10.50
2023-04-15T21:07:21.004Z,12.87
2023-04-15T21:09:50.177Z,9.90
2023-04-15T21:12:17.461Z,7.47
2023-04-15T21:14:44.797Z,12.20
2023-04-15T21:17:12.157Z,11.10
2023-04-15T21:19:40.592Z,13.03
2023-04-15T21:22:07.983Z,22.43
2023-04-15T21:24:35.391Z,43.73
2023-04-15T21:27:02.806Z,142.40
2023-04-15T21:29:30.202Z,47.30
2023-04-15T21:31:57.481Z,23.63
2023-04-15T21:34:25.004Z,32.93
2023-04-15T21:36:52.290Z,42.53
2023-04-15T21:39:19.603Z,32.80
2023-04-15T21:41:46.998Z,26.23
2023-04-15T21:44:15.095Z,15.83
2023-04-15T21:46:46.002Z,7.63
2023-04-15T21:49:14.305Z,7.57
2023-04-15T21:51:42.889Z,7.50
2023-04-15T21:54:10.181Z,7.77
2023-04-15T21:56:38.159Z,6.87
2023-04-15T21:59:05.837Z,7.40
2023-04-15T22:01:33.303Z,9.47
2023-04-15T22:04:02.509Z,7.20
2023-04-15T22:06:30.435Z,6.67
2023-04-15T22:08:58.031Z,6.13
2023-04-15T22:11:30.635Z,5.33
2023-04-15T22:13:59.098Z,5.90
2023-04-15T22:16:27.242Z,6.63
2023-04-15T22:18:55.211Z,7.00
2023-04-15T22:21:22.646Z,5.80
2023-04-15T22:23:52.178Z,7.83
2023-04-15T22:26:19.573Z,6.47
2023-04-15T22:28:46.913Z,7.23
2023-04-15T22:31:15.124Z,5.90
2023-04-15T22:33:42.954Z,6.13
2023-04-15T22:36:10.962Z,5.87
2023-04-15T22:38:38.186Z,6.37
2023-04-15T22:41:06.056Z,7.67
2023-04-15T22:43:33.475Z,7.17
2023-04-15T22:46:01.654Z,6.40
2023-04-15T22:48:28.987Z,6.57
2023-04-15T22:50:56.311Z,6.53
2023-04-15T22:53:23.598Z,7.20
2023-04-15T22:55:50.994Z,8.40
2023-04-15T22:58:18.825Z,10.30
2023-04-15T23:00:46.320Z,12.67
2023-04-15T23:03:13.897Z,28.80
2023-04-15T23:05:42.529Z,26.77
2023-04-15T23:08:09.938Z,24.73
2023-04-15T23:10:40.201Z,15.10
2023-04-15T23:13:07.475Z,14.70
2023-04-15T23:15:35.142Z,11.50
2023-04-15T23:18:03.207Z,8.33
2023-04-15T23:20:31.639Z,8.43
2023-04-15T23:22:59.395Z,9.40
2023-04-15T23:25:27.349Z,7.27
2023-04-15T23:27:54.595Z,8.70
2023-04-15T23:30:22.095Z,8.33
2023-04-15T23:32:49.720Z,10.20
2023-04-15T23:35:17.476Z,7.80
2023-04-15T23:37:44.913Z,12.47
2023-04-15T23:40:12.860Z,8.03
2023-04-15T23:42:40.181Z,8.87
2023-04-15T23:45:08.319Z,9.60
2023-04-15T23:47:35.701Z,8.60
2023-04-15T23:50:03.087Z,8.67
2023-04-15T23:52:30.643Z,8.77
2023-04-15T23:54:58.010Z,7.73
2023-04-15T23:57:25.229Z,8.57
2023-04-15T23:59:53.449Z,9.70
